Time;durP1;ratioP1;P1;durP2;ratioP2;P2;SDS_P1;SDS_P2;PMS_P1;PMS_P2;Temp;Humidity;BMP_temperature;BMP_pressure;BME280_temperature;BME280_humidity;BME280_pressure;Samples;Min_cycle;Max_cycle;Signal;HPM_P1;HPM_P2
2022/03/28 00:03:25;;;;;;;6.63;4.30;;;15.10;34.00;;;15.53;29.58;99549.69;4969068;28;124615;-87
2022/03/28 00:05:51;;;;;;;7.17;5.13;;;15.00;34.10;;;15.52;29.49;99558.38;4929358;28;124468;-83
2022/03/28 00:08:18;;;;;;;6.90;4.43;;;15.00;34.20;;;15.49;29.48;99553.47;4949833;28;112695;-91
2022/03/28 00:11:22;;;;;;;5.13;4.23;;;15.00;34.30;;;15.42;29.66;99552.00;4973820;28;114834;-90
2022/03/28 00:14:45;;;;;;;6.67;4.20;;;14.90;34.40;;;15.37;29.56;99548.56;4944030;28;122109;-88
2022/03/28 00:17:49;;;;;;;5.03;4.00;;;14.90;34.60;;;15.31;29.61;99545.06;4942651;28;122147;-91
2022/03/28 00:20:17;;;;;;;5.67;4.00;;;14.80;34.60;;;15.28;29.70;99545.72;4951683;28;114542;-90
2022/03/28 00:23:05;;;;;;;6.00;4.30;;;14.70;34.60;;;15.24;29.94;99544.75;4957477;28;114840;-81
2022/03/28 00:26:30;;;;;;;6.60;4.30;;;14.70;34.80;;;15.20;29.89;99538.19;4943881;28;123129;-85
2022/03/28 00:32:59;;;;;;;6.03;4.03;;;14.60;35.00;;;15.10;30.32;99538.50;4961147;28;114738;-87
2022/03/28 00:42:55;;;;;;;6.20;3.90;;;14.50;35.50;;;14.97;30.54;99518.84;4961583;28;124821;-85
2022/03/28 00:45:23;;;;;;;7.37;4.63;;;14.40;35.60;;;14.96;30.58;99519.16;4967671;28;114191;-89
2022/03/28 00:55:13;;;;;;;6.63;3.70;;;14.30;35.80;;;14.83;30.77;99518.16;4961021;28;124764;-89
2022/03/28 00:57:42;;;;;;;6.77;3.63;;;14.30;36.00;;;14.80;31.21;99516.84;4960393;28;114989;-87
2022/03/28 01:11:24;;;;;;;6.37;3.70;;;14.10;36.20;;;14.60;31.13;99506.28;4961024;28;115227;-86
2022/03/28 01:20:40;;;;;;;7.40;4.03;;;14.00;36.40;;;14.53;31.33;99498.44;4960613;28;124838;-78
2022/03/28 01:26:50;;;;;;;5.63;4.17;;;14.00;36.70;;;14.44;31.54;99491.16;4971024;28;115993;-75
2022/03/28 01:33:01;;;;;;;4.67;3.70;;;13.90;36.90;;;14.35;31.66;99494.72;4960729;28;124935;-74
2022/03/28 01:39:09;;;;;;;6.40;4.13;;;13.80;36.90;;;14.27;31.82;99494.69;4960905;28;115053;-77
2022/03/28 01:45:18;;;;;;;5.10;3.90;;;13.70;37.10;;;14.18;31.87;99480.72;4967558;28;124768;-79
2022/03/28 01:51:26;;;;;;;7.60;4.50;;;13.60;37.20;;;14.11;32.05;99472.06;4967486;28;115161;-75
2022/03/28 01:53:55;;;;;;;5.87;4.47;;;13.60;37.30;;;14.10;32.27;99478.72;4966419;28;124847;-77
2022/03/28 02:00:12;;;;;;;8.23;4.70;;;13.50;37.40;;;13.99;32.33;99467.06;4967206;28;115352;-82
2022/03/28 02:06:21;;;;;;;12.17;5.00;;;13.40;37.80;;;13.82;32.87;99469.75;4966868;28;125085;-75
2022/03/28 02:12:30;;;;;;;7.93;5.00;;;13.20;37.90;;;13.64;32.49;99463.28;4967288;28;115323;-74
2022/03/28 02:18:38;;;;;;;9.53;5.83;;;13.10;38.00;;;13.54;33.13;99460.75;4966620;28;125163;-74
2022/03/28 02:24:47;;;;;;;9.97;5.23;;;13.00;38.20;;;13.46;33.02;99454.84;4966318;28;116182;-78
2022/03/28 02:28:11;;;;;;;9.07;5.33;;;13.00;38.20;;;13.45;32.74;99450.41;4950136;28;114736;-76
2022/03/28 02:34:20;;;;;;;5.43;4.63;;;12.90;38.10;;;13.39;32.78;99454.44;4966650;28;124768;-75
2022/03/28 02:40:32;;;;;;;8.90;4.67;;;12.80;37.90;;;13.29;32.74;99451.09;4966749;28;114940;-78
2022/03/28 02:46:41;;;;;;;8.97;5.10;;;12.70;37.80;;;13.15;32.72;99449.16;4983379;28;124804;-75
2022/03/28 02:52:49;;;;;;;7.70;5.00;;;12.60;37.90;;;13.09;32.83;99441.28;4986255;28;114983;-75
2022/03/28 03:09:51;;;;;;;14.83;6.60;;;12.40;38.40;;;12.85;33.27;99430.47;6037809;23;99049;31
2022/03/28 03:12:57;;;;;;;7.33;5.40;;;12.30;38.60;;;12.79;33.34;99436.13;4902482;28;114779;-83
2022/03/28 03:19:07;;;;;;;8.43;5.83;;;12.30;38.70;;;12.70;33.62;99423.28;4904373;28;125237;-76
2022/03/28 03:25:16;;;;;;;10.87;6.63;;;12.40;39.20;;;12.57;33.70;99413.88;4904401;28;116374;-77
2022/03/28 03:35:07;;;;;;;11.80;7.03;;;9.40;37.70;;;12.46;33.75;99426.31;4903801;28;124939;-82
2022/03/28 03:41:16;;;;;;;7.63;5.90;;;11.80;39.10;;;12.37;34.30;99418.72;4904683;28;114970;-78
2022/03/28 03:44:21;;;;;;;6.20;5.50;;;11.80;39.60;;;12.37;34.06;99418.72;4904229;28;124844;-76
2022/03/28 03:50:29;;;;;;;8.77;5.60;;;11.00;38.60;;;12.34;34.10;99426.84;4904479;28;115317;-84
2022/03/28 03:53:02;;;;;;;10.83;5.60;;;11.70;40.10;;;12.31;34.51;99419.16;4888591;28;113707;-75
2022/03/28 04:12:35;;;;;;;15.20;8.30;;;10.20;39.60;;;11.69;35.18;99417.53;4962256;28;115380;-78
2022/03/28 04:18:44;;;;;;;10.97;7.10;;;10.00;39.70;;;11.59;35.67;99414.94;4961914;28;124411;-75
2022/03/28 04:22:09;;;;;;;9.87;6.77;;;11.00;42.30;;;11.61;35.69;99418.22;4961667;28;124553;-77
2022/03/28 04:28:18;;;;;;;12.77;8.20;;;11.10;41.30;;;11.33;36.12;99410.97;4961868;28;116000;-78
2022/03/28 04:34:29;;;;;;;8.73;6.70;;;10.90;41.20;;;11.32;35.90;99415.69;4961452;28;124928;-83
2022/03/28 04:37:54;;;;;;;10.90;5.60;;;13.20;43.20;;;11.40;35.53;99412.22;4960891;28;114123;-86
2022/03/28 04:44:03;;;;;;;9.77;5.73;;;10.90;41.10;;;11.50;36.06;99414.00;4961149;28;125003;-90
2022/03/28 04:46:29;;;;;;;7.47;5.70;;;11.00;42.00;;;11.58;35.78;99420.78;5386733;23;124429;-84
2022/03/28 04:52:38;;;;;;;9.63;5.97;;;11.00;41.10;;;11.59;35.45;99426.00;4942229;28;115039;-77
2022/03/28 04:55:06;;;;;;;7.93;5.50;;;10.90;42.80;;;11.62;35.69;99419.06;4926731;28;124836;-90
2022/03/28 04:57:53;;;;;;;11.57;6.90;;;11.10;42.30;;;11.62;35.61;99419.88;4957921;28;124555;-86
2022/03/28 05:04:01;;;;;;;9.70;6.67;;;11.50;41.50;;;11.57;35.45;99419.94;4960370;28;115053;-90
2022/03/28 05:06:27;;;;;;;7.67;5.53;;;11.00;41.10;;;11.59;35.64;99417.72;4949138;28;124875;-88
2022/03/28 05:08:54;;;;;;;8.53;5.90;;;11.00;41.10;;;11.60;35.84;99422.09;4948689;28;124443;-85
2022/03/28 05:14:49;;;;;;;7.57;5.70;;;11.00;41.10;;;11.58;35.61;99418.84;4960764;28;114030;-91
2022/03/28 05:17:36;;;;;;;13.83;7.80;;;11.00;41.10;;;11.52;35.82;99428.34;4955480;28;124835;-89
2022/03/28 05:20:23;;;;;;;14.47;8.20;;;11.00;41.80;;;11.40;35.96;99419.72;4939904;28;123941;-85
2022/03/28 05:23:11;;;;;;;14.00;8.30;;;10.90;41.50;;;11.32;35.92;99417.63;4956518;28;115061;-83
2022/03/28 05:26:34;;;;;;;13.90;7.70;;;10.80;41.70;;;11.24;36.35;99408.06;4957499;28;115829;-89
2022/03/28 05:32:42;;;;;;;11.67;6.23;;;10.70;41.70;;;11.20;36.20;99421.69;4959789;28;123919;-91
2022/03/28 05:38:50;;;;;;;10.80;6.77;;;10.70;41.90;;;11.20;36.14;99415.31;4959406;28;115013;-89
2022/03/28 05:41:55;;;;;;;7.67;5.73;;;10.60;41.70;;;11.23;35.95;99406.41;4930830;28;124619;-89
2022/03/28 05:45:19;;;;;;;10.83;6.00;;;10.70;41.70;;;11.25;36.37;99410.53;4926584;28;122106;-91
2022/03/28 05:47:46;;;;;;;12.67;6.13;;;10.70;41.70;;;11.26;36.39;99419.66;4947375;28;114945;-91
2022/03/28 05:53:55;;;;;;;18.23;8.03;;;10.70;42.30;;;11.13;36.71;99409.38;4950572;28;125017;-90
2022/03/28 05:56:22;;;;;;;15.20;8.90;;;10.60;42.80;;;11.06;36.60;99416.09;4941023;28;124446;-91
2022/03/28 06:02:31;;;;;;;9.77;7.33;;;10.50;42.60;;;11.08;36.89;99414.97;4946965;28;115072;-91
2022/03/28 06:05:00;;;;;;;9.73;6.50;;;10.50;42.60;;;11.16;36.61;99417.06;4947517;28;125111;-90
2022/03/28 06:07:26;;;;;;;9.07;5.77;;;10.60;42.50;;;11.24;36.36;99413.63;4947654;28;123351;-91
2022/03/28 06:10:18;;;;;;;9.60;6.47;;;10.60;42.40;;;11.32;36.82;99418.44;4941189;28;113692;-92
2022/03/28 06:16:45;;;;;;;11.73;6.90;;;10.70;42.50;;;11.38;36.45;99424.72;4946861;28;124245;-91
2022/03/28 06:22:53;;;;;;;10.20;6.70;;;10.70;42.40;;;11.39;36.41;99423.59;4953847;28;115825;-91
2022/03/28 06:25:22;;;;;;;9.43;6.20;;;10.90;42.60;;;11.45;36.60;99419.63;4934262;28;115124;-92
2022/03/28 06:27:50;;;;;;;10.90;7.03;;;10.80;42.30;;;11.53;36.36;99418.13;4944722;28;123446;-91
2022/03/28 06:30:38;;;;;;;10.83;6.60;;;10.90;42.50;;;11.62;36.19;99416.28;4933543;28;123319;-91
2022/03/28 06:33:24;;;;;;;12.17;6.40;;;10.90;42.40;;;11.70;36.30;99421.94;4932472;28;114175;-89
2022/03/28 06:36:11;;;;;;;10.83;6.17;;;11.00;42.40;;;11.77;36.24;99424.31;4940547;28;113416;-90
2022/03/28 06:42:19;;;;;;;10.93;7.10;;;11.10;42.50;;;11.81;36.29;99424.53;4957573;28;124832;-90
2022/03/28 06:45:06;;;;;;;7.60;6.37;;;11.10;42.30;;;11.91;36.04;99422.41;4939201;28;112535;-90
2022/03/28 06:47:32;;;;;;;14.53;8.17;;;11.20;42.30;;;12.12;36.24;99416.50;4932996;28;111859;-89
2022/03/28 06:50:00;;;;;;;12.90;6.43;;;11.30;42.60;;;12.35;35.39;99420.97;4947678;28;124125;-91
2022/03/28 06:52:27;;;;;;;12.43;6.60;;;11.50;42.40;;;12.44;35.40;99417.47;4930399;28;123593;-92
2022/03/28 06:54:53;;;;;;;12.27;6.47;;;11.60;42.40;;;12.51;35.26;99406.81;4935369;28;113079;-90
2022/03/28 06:57:39;;;;;;;11.23;6.93;;;11.70;42.00;;;12.60;35.50;99407.72;4949004;28;113440;-91
2022/03/28 07:00:10;;;;;;;10.60;6.00;;;11.90;41.90;;;12.64;35.45;99416.22;4954620;28;124923;-92
2022/03/28 07:02:40;;;;;;;11.97;7.80;;;11.90;42.40;;;12.68;35.26;99412.53;4952152;28;123164;-91
2022/03/28 07:05:45;;;;;;;14.03;7.50;;;12.00;42.00;;;12.70;35.45;99410.25;4939188;28;114122;-91
2022/03/28 07:08:13;;;;;;;11.70;7.10;;;12.00;41.70;;;12.75;35.05;99401.00;4937280;28;112460;-90
2022/03/28 07:11:35;;;;;;;12.70;8.07;;;12.00;41.70;;;12.74;35.25;99404.91;4930927;28;123923;-91
2022/03/28 07:14:04;;;;;;;9.87;6.70;;;12.10;41.70;;;12.78;35.09;99403.97;4934992;28;121716;-91
2022/03/28 07:16:52;;;;;;;12.40;8.20;;;12.10;41.70;;;12.82;35.05;99399.44;4929845;28;114643;-92
2022/03/28 07:19:20;;;;;;;13.03;8.00;;;12.10;41.60;;;12.88;35.06;99399.31;4941151;28;114301;-90
2022/03/28 07:22:27;;;;;;;20.17;9.20;;;12.20;41.60;;;12.88;34.94;99397.38;4937024;28;122763;-90
2022/03/28 07:25:13;;;;;;;11.87;8.00;;;12.20;41.70;;;12.91;34.87;99404.25;4952493;28;123090;-92
2022/03/28 07:31:21;;;;;;;10.03;6.70;;;12.30;41.60;;;13.05;35.02;99405.00;4953121;28;114299;-86
2022/03/28 07:33:49;;;;;;;12.50;8.37;;;12.30;41.50;;;13.17;35.02;99394.19;4959285;28;124664;-91
2022/03/28 07:36:17;;;;;;;11.00;7.80;;;12.40;41.50;;;13.28;34.78;99403.09;4937725;28;123384;-91
2022/03/28 07:39:03;;;;;;;12.30;7.57;;;12.50;41.40;;;13.39;34.70;99396.16;4942216;28;114697;-93
2022/03/28 07:41:31;;;;;;;14.00;7.93;;;12.60;41.40;;;13.51;34.35;99395.56;4954041;28;113954;-90
2022/03/28 07:43:59;;;;;;;11.37;8.03;;;12.70;41.30;;;13.62;34.37;99391.41;4952345;28;125005;-92
2022/03/28 07:46:26;;;;;;;10.40;7.47;;;12.80;41.40;;;13.72;34.38;99386.72;4943903;28;124449;-92
2022/03/28 07:49:45;;;;;;;10.87;7.67;;;12.90;41.80;;;13.81;34.25;99393.13;4924702;28;113554;-91
2022/03/28 07:52:14;;;;;;;13.27;7.23;;;13.00;41.00;;;13.89;34.11;99386.81;4924613;28;113579;-92
2022/03/28 07:54:43;;;;;;;14.83;8.87;;;13.10;41.20;;;13.94;34.14;99381.09;4929486;28;122381;-94
2022/03/28 07:57:14;;;;;;;18.63;10.47;;;13.20;40.80;;;13.97;33.90;99377.69;4944164;28;123587;-90
2022/03/28 07:59:46;;;;;;;14.10;10.40;;;13.20;40.60;;;13.97;33.97;99374.91;4950034;28;114716;-91
2022/03/28 08:03:10;;;;;;;17.63;10.20;;;13.30;40.50;;;13.99;33.80;99380.13;4937023;28;113361;-92
2022/03/28 08:05:56;;;;;;;9.50;7.50;;;13.30;40.40;;;14.09;33.73;99377.88;4942981;28;125023;-91
2022/03/28 08:09:20;;;;;;;13.30;9.27;;;13.40;40.50;;;14.22;33.60;99380.88;4930195;28;123697;-90
2022/03/28 08:11:47;;;;;;;10.67;7.80;;;13.50;40.50;;;14.32;33.35;99366.69;4937910;28;114356;-93
2022/03/28 08:14:36;;;;;;;12.93;8.60;;;13.60;40.40;;;14.41;33.30;99364.72;4951401;28;115798;-92
2022/03/28 08:17:41;;;;;;;15.20;9.63;;;13.60;40.10;;;14.49;33.06;99365.88;4931617;28;124811;-92
2022/03/28 08:20:11;;;;;;;16.40;10.20;;;13.70;40.00;;;14.53;33.02;99355.78;4929137;28;124274;-91
2022/03/28 08:26:20;;;;;;;16.97;10.13;;;13.80;39.60;;;14.62;32.76;99355.81;4944561;28;113832;-91
2022/03/28 08:29:06;;;;;;;20.57;10.20;;;13.90;39.50;;;14.70;32.69;99357.78;4942743;28;123818;-91
2022/03/28 08:32:29;;;;;;;534.57;487.10;;;14.00;39.40;;;14.80;32.77;99357.44;4929813;28;123653;-91
2022/03/28 08:34:55;;;;;;;13.83;9.10;;;14.10;39.40;;;14.90;32.57;99357.09;4916017;28;113245;-91
2022/03/28 08:37:27;;;;;;;13.70;9.40;;;14.20;39.40;;;15.01;32.41;99355.63;4908626;28;113119;-91
2022/03/28 08:39:57;;;;;;;12.13;8.33;;;14.20;39.20;;;15.10;32.35;99343.66;4923085;28;122124;-91
2022/03/28 08:42:25;;;;;;;12.67;9.00;;;14.30;39.20;;;15.19;32.27;99348.09;4919363;28;122912;-92
2022/03/28 08:44:52;;;;;;;12.30;8.10;;;13.10;38.00;;;15.29;32.27;99341.38;4916740;28;113349;-91
2022/03/28 08:47:22;;;;;;;11.17;7.67;;;14.50;39.00;;;15.38;32.14;99339.38;4901754;28;114064;-91
2022/03/28 08:50:10;;;;;;;17.63;9.37;;;14.60;39.00;;;15.48;31.98;99342.97;4894566;28;125211;-91
2022/03/28 08:52:40;;;;;;;12.77;8.03;;;14.70;38.90;;;15.56;31.81;99333.75;4919023;28;123627;-92
2022/03/28 08:55:13;;;;;;;20.13;10.20;;;14.80;38.80;;;15.62;31.59;99335.22;4923558;28;114429;-91
2022/03/28 08:57:40;;;;;;;15.87;9.30;;;14.80;38.60;;;15.68;31.66;99328.28;4889791;28;112205;-90
2022/03/28 09:00:26;;;;;;;14.20;9.73;;;14.90;38.60;;;15.78;31.70;99324.38;4900436;28;124047;-91
2022/03/28 09:02:58;;;;;;;14.23;9.00;;;15.00;38.50;;;15.85;31.37;99333.84;4914008;28;123118;-91
2022/03/28 09:05:39;;;;;;;12.70;8.73;;;15.10;38.40;;;15.93;31.29;99325.75;4908224;28;114561;-92
2022/03/28 09:08:09;;;;;;;10.80;7.37;;;15.20;38.40;;;16.01;31.28;99325.75;4887189;28;113763;-91
2022/03/28 09:10:37;;;;;;;17.77;10.40;;;15.30;38.40;;;16.10;31.16;99314.53;4899081;28;124007;-90
2022/03/28 09:13:07;;;;;;;12.40;8.17;;;15.30;38.20;;;16.16;31.18;99315.16;4906083;28;121871;-92
2022/03/28 09:15:57;;;;;;;22.30;10.93;;;15.40;38.20;;;16.26;31.07;99306.41;4913071;28;114174;-91
2022/03/28 09:18:34;;;;;;;15.83;10.20;;;15.50;37.90;;;16.33;30.83;99304.72;4895046;28;113169;-91
2022/03/28 09:21:07;;;;;;;16.40;10.10;;;15.60;37.80;;;16.42;30.64;99298.25;4907117;28;123571;-92
2022/03/28 09:23:48;;;;;;;16.27;9.40;;;15.60;37.70;;;16.49;30.61;99298.53;4919279;28;123041;-93
2022/03/28 09:26:24;;;;;;;980.37;723.00;;;15.70;37.70;;;16.56;30.57;99290.44;4900624;28;113718;-91
2022/03/28 09:29:11;;;;;;;1521.87;999.90;;;15.80;37.50;;;16.61;30.52;99290.22;4916684;28;113440;-91
2022/03/28 09:31:44;;;;;;;943.73;863.17;;;15.90;37.30;;;16.64;30.23;99283.97;4841513;29;124049;-92
2022/03/28 09:34:20;;;;;;;1538.07;999.90;;;15.90;37.20;;;16.70;30.29;99282.59;4805397;29;123281;-93
2022/03/28 09:36:56;;;;;;;1731.63;999.90;;;16.00;37.30;;;16.78;30.42;99280.91;4833044;29;113646;-92
2022/03/28 09:39:29;;;;;;;1445.60;999.90;;;16.10;37.20;;;16.85;30.30;99272.81;4822943;29;112224;-92
2022/03/28 09:42:10;;;;;;;1309.17;999.90;;;16.10;37.10;;;16.91;29.59;99271.44;4835326;29;124626;-92
2022/03/28 09:45:00;;;;;;;1320.63;999.90;;;16.20;36.70;;;16.96;29.93;99262.03;4835939;29;124864;-92
2022/03/28 09:47:27;;;;;;;338.20;306.53;;;16.30;36.70;;;17.04;29.66;99261.13;4842008;29;114401;-91
2022/03/28 09:49:57;;;;;;;143.20;131.33;;;15.50;35.80;;;17.08;29.59;99259.28;4825728;29;112493;-92
2022/03/28 09:52:28;;;;;;;145.63;132.77;;;16.40;36.20;;;17.10;29.57;99248.59;4857214;29;124148;-92
2022/03/28 09:54:59;;;;;;;31.47;10.30;;;16.40;36.20;;;17.16;29.52;99244.41;4841424;29;121907;-93
2022/03/28 09:57:31;;;;;;;33.93;10.63;;;16.50;36.30;;;17.27;29.52;99243.97;4841671;29;113872;-92
2022/03/28 10:00:19;;;;;;;31.70;11.20;;;16.60;36.30;;;17.35;29.24;99232.69;4859089;29;114222;-93
2022/03/28 10:02:47;;;;;;;35.23;13.73;;;16.70;36.10;;;17.41;29.36;99230.50;4837973;29;123991;-91
2022/03/28 10:05:53;;;;;;;36.43;12.17;;;16.70;35.80;;;17.45;29.15;99232.22;4859350;29;123900;-95
2022/03/28 10:08:57;;;;;;;32.37;11.60;;;16.80;36.00;;;17.55;29.29;99230.97;4876853;28;114554;-93
2022/03/28 10:11:30;;;;;;;37.73;13.17;;;16.90;36.00;;;17.65;29.03;99221.28;4924045;28;114190;-92
2022/03/28 10:14:00;;;;;;;36.47;13.23;;;16.90;35.80;;;17.73;28.83;99223.19;4910874;28;122166;-91
2022/03/28 10:16:27;;;;;;;32.67;12.20;;;17.00;35.50;;;17.79;28.82;99216.22;4908133;28;123828;-92
2022/03/28 10:19:14;;;;;;;35.03;11.10;;;17.10;35.50;;;17.86;28.92;99210.84;4925816;28;114325;-93
2022/03/28 10:21:41;;;;;;;37.90;12.90;;;17.20;35.60;;;17.96;28.90;99206.75;4909656;28;113250;-90
2022/03/28 10:24:22;;;;;;;37.50;13.33;;;15.90;34.30;;;18.06;28.67;99199.88;4914110;28;124246;-91
2022/03/28 10:26:57;;;;;;;586.43;533.47;;;17.40;35.60;;;18.15;28.72;99199.72;4928834;28;123886;-91
2022/03/28 10:29:40;;;;;;;458.83;411.93;;;17.40;35.40;;;18.23;28.56;99198.78;4933672;28;113910;-92
2022/03/28 10:32:23;;;;;;;660.77;599.67;;;17.60;35.60;;;18.35;28.60;99190.34;4874208;28;112448;-91
2022/03/28 10:35:00;;;;;;;20.47;11.90;;;17.70;35.60;;;18.45;28.83;99192.63;4869855;28;123864;-91
2022/03/28 10:37:41;;;;;;;69.57;59.97;;;17.80;35.70;;;18.57;28.62;99182.59;4874356;28;123810;-92
2022/03/28 10:40:30;;;;;;;15.53;10.10;;;17.90;35.70;;;18.68;28.54;99175.28;4868588;28;114763;-93
2022/03/28 10:43:14;;;;;;;19.87;11.53;;;18.00;35.70;;;18.80;28.51;99180.84;4870932;28;113305;-90
2022/03/28 10:45:59;;;;;;;25.20;11.03;;;18.10;35.70;;;18.91;28.50;99161.53;4870772;28;123451;-92
2022/03/28 10:48:54;;;;;;;22.00;13.40;;;18.20;35.60;;;19.03;28.32;99166.25;4842026;29;122186;-91
2022/03/28 10:51:32;;;;;;;15.80;11.17;;;18.30;35.40;;;19.15;28.19;99152.16;4840380;28;114866;-92
2022/03/28 10:54:04;;;;;;;16.77;10.67;;;18.40;35.50;;;19.26;28.14;99144.81;4853706;29;114524;-91
2022/03/28 10:56:38;;;;;;;20.37;12.90;;;18.50;35.40;;;19.38;27.98;99136.34;4838989;29;123944;-91
2022/03/28 10:59:11;;;;;;;16.57;10.50;;;18.70;35.20;;;19.52;27.85;99135.06;4848124;29;123794;-91
2022/03/28 11:01:46;;;;;;;20.03;12.27;;;18.80;35.20;;;19.64;27.57;99129.34;4850439;29;113627;-93
2022/03/28 11:04:31;;;;;;;20.60;14.03;;;18.90;34.70;;;19.76;27.09;99109.63;4833115;29;114649;-92
2022/03/28 11:06:59;;;;;;;18.90;11.87;;;19.00;34.30;;;19.89;27.22;99118.72;4836990;29;126203;-91
2022/03/28 11:09:41;;;;;;;20.33;12.90;;;19.20;34.20;;;20.03;26.38;99102.19;4872216;28;124684;-93
2022/03/28 11:12:39;;;;;;;19.40;12.67;;;19.30;33.20;;;20.19;26.29;99110.53;4914293;28;114926;-89
2022/03/28 11:15:21;;;;;;;18.23;10.87;;;19.50;33.20;;;20.37;26.20;99104.47;4914902;28;114943;-94
2022/03/28 11:18:10;;;;;;;20.97;12.20;;;19.60;33.00;;;20.51;25.41;99101.94;4898634;28;122974;-92
2022/03/28 11:20:48;;;;;;;24.63;13.73;;;19.80;32.20;;;20.64;24.92;99097.81;4913804;28;124423;-92
2022/03/28 11:23:20;;;;;;;21.53;13.30;;;20.00;31.60;;;20.74;24.90;99097.22;4895938;28;112753;-90
2022/03/28 11:25:55;;;;;;;18.93;13.03;;;20.10;31.60;;;20.89;24.86;99089.03;4911667;28;115198;-90
2022/03/28 11:28:25;;;;;;;21.90;13.27;;;20.20;31.30;;;21.01;24.17;99091.66;4913670;28;124340;-91
2022/03/28 11:31:12;;;;;;;18.80;12.80;;;20.30;30.40;;;21.13;24.33;99088.63;4911888;28;123218;-92
2022/03/28 11:33:46;;;;;;;19.67;12.00;;;20.50;30.80;;;21.26;24.42;99083.63;4914321;28;114261;-93
2022/03/28 11:36:20;;;;;;;27.40;12.80;;;20.60;30.70;;;21.41;24.24;99070.63;4915436;28;113572;-92
2022/03/28 11:38:55;;;;;;;26.10;13.43;;;20.70;30.30;;;21.56;23.92;99063.22;4912805;28;124480;-92
2022/03/28 11:41:28;;;;;;;18.90;11.97;;;20.90;30.00;;;21.67;23.81;99064.19;4905569;28;123508;-93
2022/03/28 11:43:59;;;;;;;21.10;13.60;;;21.00;30.20;;;21.80;23.17;99059.94;4894552;28;115148;-95
2022/03/28 11:46:30;;;;;;;20.00;12.47;;;21.10;29.70;;;21.90;22.91;99061.28;4914328;28;114871;-89
2022/03/28 11:49:04;;;;;;;17.10;11.50;;;21.20;29.60;;;22.04;23.27;99067.06;4932448;28;123967;-92
2022/03/28 11:51:35;;;;;;;21.03;12.10;;;21.30;29.70;;;22.17;23.00;99064.03;4912534;28;124064;-94
2022/03/28 11:54:11;;;;;;;19.20;12.00;;;21.50;29.40;;;22.29;22.41;99049.69;4924082;28;114241;-92
2022/03/28 11:59:26;;;;;;;18.47;13.03;;;21.70;29.40;;;22.52;22.47;99043.13;4913126;28;123687;-93
2022/03/28 12:02:04;;;;;;;22.80;14.37;;;21.80;29.00;;;22.59;22.25;99046.00;4915537;28;125159;-94
2022/03/28 12:04:30;;;;;;;22.80;13.97;;;22.00;28.80;;;22.69;22.12;99039.66;4916104;28;112375;-90
2022/03/28 12:06:57;;;;;;;21.30;13.93;;;22.00;28.50;;;22.77;21.93;99026.44;4929819;28;113249;-92
2022/03/28 12:09:24;;;;;;;19.70;13.93;;;22.10;28.10;;;22.84;21.99;99032.16;4932808;28;124102;-91
2022/03/28 12:11:57;;;;;;;17.97;11.90;;;22.20;28.40;;;22.97;22.06;99018.59;4911608;28;123830;-92
2022/03/28 12:14:24;;;;;;;22.23;13.20;;;22.30;28.60;;;23.11;21.59;99019.50;4904541;28;114653;-91
2022/03/28 12:16:57;;;;;;;23.70;14.63;;;22.40;28.40;;;23.25;21.54;99015.97;4931588;28;113182;-91
2022/03/28 12:29:17;;;;;;;24.23;15.30;;;22.80;28.30;;;23.65;21.81;99005.75;4922246;28;113601;-91
2022/03/28 12:31:48;;;;;;;29.63;13.40;;;23.00;28.50;;;23.74;21.89;99000.56;4919011;28;124523;-91
2022/03/28 12:34:17;;;;;;;33.50;16.40;;;23.10;28.70;;;23.77;21.76;98991.31;4901409;28;123897;-90
2022/03/28 12:36:45;;;;;;;23.83;14.00;;;23.20;28.40;;;23.86;21.74;98981.66;4883730;28;114978;-89
2022/03/28 12:39:12;;;;;;;24.87;15.10;;;23.20;28.60;;;23.93;21.52;98981.69;4894993;28;114246;-89
2022/03/28 12:41:41;;;;;;;28.47;16.07;;;23.30;28.80;;;23.88;21.37;98984.91;4895745;28;124147;-89
2022/03/28 12:44:24;;;;;;;27.23;15.20;;;23.30;27.90;;;23.94;21.43;98983.31;4900044;28;122792;-89
2022/03/28 12:46:51;;;;;;;18.30;11.50;;;23.40;28.10;;;24.02;21.54;98970.84;4913993;28;114863;-87
2022/03/28 12:49:20;;;;;;;14.03;10.40;;;23.40;28.40;;;24.14;21.59;98955.53;4922162;28;114720;-88
2022/03/28 12:51:48;;;;;;;24.30;13.87;;;23.50;28.50;;;24.17;21.31;98949.88;4894390;28;123591;-90
2022/03/28 12:54:21;;;;;;;22.73;13.50;;;23.60;28.10;;;24.24;21.47;98947.09;4898823;28;123607;-91
2022/03/28 12:56:59;;;;;;;19.87;12.90;;;23.70;28.30;;;24.26;21.42;98941.06;4931510;28;114308;-91
2022/03/28 12:59:33;;;;;;;20.90;11.67;;;23.70;28.20;;;24.36;21.66;98937.41;4929415;28;113963;-90
2022/03/28 13:02:26;;;;;;;17.90;11.47;;;23.70;28.50;;;24.50;21.57;98925.34;4928445;28;124827;-86
2022/03/28 13:04:58;;;;;;;17.50;11.43;;;23.90;28.40;;;24.60;21.26;98924.53;4926991;28;123669;-88
2022/03/28 13:07:30;;;;;;;19.53;11.67;;;24.00;28.40;;;24.72;21.11;98926.16;4929256;28;114901;-89
2022/03/28 13:09:58;;;;;;;12.43;9.10;;;24.10;28.30;;;24.86;21.26;98920.50;4911001;28;114108;-88
2022/03/28 13:12:39;;;;;;;15.87;10.60;;;24.20;28.40;;;25.01;20.63;98931.75;4910847;28;124735;-89
2022/03/28 13:15:19;;;;;;;12.47;8.77;;;24.40;28.00;;;25.04;21.11;98923.28;4908675;28;124529;-87
2022/03/28 13:17:48;;;;;;;16.23;9.43;;;24.40;28.10;;;25.12;20.80;98909.94;4927748;28;114415;-87
2022/03/28 13:24:34;;;;;;;14.03;9.60;;;24.70;28.10;;;25.35;20.63;98895.34;4957147;28;125133;-95
2022/03/28 13:28:09;;;;;;;11.37;8.90;;;24.70;27.70;;;25.51;20.63;98887.19;4943827;28;123098;-96
2022/03/28 13:31:00;;;;;;;12.57;8.90;;;24.90;27.90;;;25.67;20.27;98883.88;4936102;28;116213;-94
2022/03/28 13:33:29;;;;;;;19.17;10.57;;;25.00;27.20;;;25.79;19.53;98871.28;4949625;28;114399;-95
2022/03/28 13:36:15;;;;;;;14.50;9.97;;;25.10;27.10;;;25.93;19.73;98861.94;4954858;28;123777;-95
2022/03/28 13:39:02;;;;;;;12.27;9.20;;;25.30;26.60;;;26.03;19.49;98857.41;4950595;28;124479;-96
2022/03/28 13:45:11;;;;;;;9.37;7.00;;;25.50;27.00;;;26.36;19.21;98853.91;4945364;28;114383;-92
2022/03/28 13:47:37;;;;;;;9.87;6.67;;;25.70;26.70;;;26.42;19.12;98863.56;4953928;28;124887;-96
2022/03/28 13:50:05;;;;;;;9.17;6.67;;;25.80;26.60;;;26.53;18.89;98868.38;4951168;28;124510;-96
2022/03/28 13:52:51;;;;;;;10.03;7.10;;;25.90;26.40;;;26.58;18.72;98854.56;4942867;28;114237;-96
2022/03/28 13:55:17;;;;;;;13.33;9.20;;;26.00;26.10;;;26.62;18.52;98846.00;4947662;28;113325;-93
2022/03/28 13:58:41;;;;;;;14.83;8.73;;;26.10;25.10;;;26.61;18.66;98839.53;4929295;28;123084;-95
2022/03/28 14:01:08;;;;;;;10.67;8.03;;;26.10;25.30;;;26.70;18.76;98841.06;4934154;28;123205;-95
2022/03/28 14:07:21;;;;;;;13.97;9.93;;;26.20;24.60;;;26.80;17.75;98835.28;4947500;28;114936;-94
2022/03/28 14:09:49;;;;;;;12.13;8.00;;;26.20;24.10;;;26.84;17.96;98824.72;4938180;28;124023;-94
2022/03/28 14:12:16;;;;;;;9.03;6.17;;;26.30;24.60;;;26.96;17.77;98819.72;4943277;28;123890;-96
2022/03/28 14:14:45;;;;;;;7.30;5.20;;;26.40;24.80;;;27.12;18.04;98819.94;4941194;28;113954;-94
2022/03/28 14:17:49;;;;;;;14.00;9.77;;;26.50;25.00;;;27.23;17.09;98809.28;4923890;28;113817;-94
2022/03/28 14:20:18;;;;;;;9.80;6.33;;;26.60;23.90;;;27.34;17.47;98816.88;4929093;28;123846;-93
2022/03/28 14:23:25;;;;;;;12.93;8.87;;;26.70;24.50;;;27.39;16.38;98802.19;4941017;28;124059;-94
2022/03/28 14:25:51;;;;;;;12.30;8.73;;;26.80;23.30;;;27.46;16.84;98799.28;4941207;28;113961;-86
2022/03/28 14:28:19;;;;;;;13.33;8.83;;;26.80;23.30;;;27.49;16.25;98793.53;4935082;28;114187;-92
2022/03/28 14:31:05;;;;;;;9.67;7.40;;;26.90;23.20;;;27.55;16.48;98799.53;4916243;28;122264;-94
2022/03/28 14:34:09;;;;;;;10.87;7.80;;;27.00;22.90;;;27.60;16.41;98795.44;4930617;28;123099;-95
2022/03/28 14:36:55;;;;;;;7.83;5.63;;;27.10;23.00;;;27.77;16.81;98782.97;4921964;28;113421;-94